Time;durP1;ratioP1;P1;durP2;ratioP2;P2;SDS_P1;SDS_P2;PMS_P1;PMS_P2;Temp;Humidity;BMP_temperature;BMP_pressure;BME280_temperature;BME280_humidity;BME280_pressure;Samples;Min_cycle;Max_cycle;Signal;HPM_P1;HPM_P2
2022/05/04 00:00:11;;;;;;;17.42;11.48;;;13.40;63.70;;;;;;5043556;28;20029;-67
2022/05/04 00:02:38;;;;;;;15.95;11.00;;;13.30;63.80;;;;;;5045112;28;20041;-67
2022/05/04 00:05:05;;;;;;;17.65;10.90;;;13.30;63.90;;;;;;5045054;28;20017;-67
2022/05/04 00:07:30;;;;;;;17.38;11.07;;;13.30;63.80;;;;;;5035485;28;20560;-67
2022/05/04 00:09:57;;;;;;;15.80;10.13;;;13.30;63.70;;;;;;5046278;28;20119;-67
2022/05/04 00:12:23;;;;;;;13.52;9.88;;;13.30;64.00;;;;;;5044562;28;20527;-67
2022/05/04 00:14:49;;;;;;;15.90;10.50;;;13.30;64.10;;;;;;5039193;28;20018;-67
2022/05/04 00:17:15;;;;;;;15.48;10.30;;;13.30;63.70;;;;;;5037658;28;20060;-67
2022/05/04 00:19:40;;;;;;;18.30;10.38;;;13.30;63.60;;;;;;5040653;28;20029;-67
2022/05/04 00:22:06;;;;;;;15.15;10.27;;;13.30;63.60;;;;;;5038988;28;20025;-67
2022/05/04 00:24:32;;;;;;;15.30;10.57;;;13.30;63.70;;;;;;5045092;28;20032;-67
2022/05/04 00:26:57;;;;;;;14.68;10.68;;;13.30;64.00;;;;;;5036063;28;20029;-67
2022/05/04 00:29:24;;;;;;;15.65;11.25;;;13.30;64.20;;;;;;5042386;28;20083;-67
2022/05/04 00:31:49;;;;;;;14.77;10.32;;;13.20;64.40;;;;;;5044656;28;20096;-67
2022/05/04 00:34:15;;;;;;;15.20;10.43;;;13.20;64.60;;;;;;5046947;28;20108;-67
2022/05/04 00:36:41;;;;;;;16.15;11.23;;;13.20;65.00;;;;;;5046301;28;20040;-67
2022/05/04 00:39:06;;;;;;;15.93;11.30;;;13.30;65.30;;;;;;5038586;28;20040;-67
2022/05/04 00:41:32;;;;;;;15.75;11.10;;;13.30;65.50;;;;;;5040892;28;20029;-67
2022/05/04 00:43:58;;;;;;;16.83;10.75;;;13.30;65.70;;;;;;5034655;28;20037;-67
2022/05/04 00:46:23;;;;;;;16.08;11.43;;;13.30;65.80;;;;;;5045405;28;20055;-67
2022/05/04 00:48:49;;;;;;;15.35;10.93;;;13.30;65.70;;;;;;5034851;28;20160;-67
2022/05/04 00:51:15;;;;;;;14.98;10.80;;;13.30;65.70;;;;;;5044669;28;20033;-67
2022/05/04 00:53:42;;;;;;;18.80;12.10;;;13.30;65.60;;;;;;5041616;28;20079;-67
2022/05/04 00:56:09;;;;;;;15.40;10.80;;;13.30;65.80;;;;;;5043761;28;20052;-66
2022/05/04 00:58:55;;;;;;;16.13;10.73;;;13.30;65.70;;;;;;5029468;28;20094;-67
2022/05/04 01:01:29;;;;;;;18.05;11.00;;;13.30;64.80;;;;;;5042531;28;20063;-67
2022/05/04 01:03:56;;;;;;;17.17;11.05;;;13.20;65.60;;;;;;5040218;28;20033;-67
2022/05/04 01:06:22;;;;;;;15.98;11.48;;;13.20;65.70;;;;;;5033206;28;20378;-67
2022/05/04 01:08:50;;;;;;;16.45;11.15;;;13.20;65.80;;;;;;5039524;28;20495;-67
2022/05/04 01:11:17;;;;;;;16.60;11.40;;;13.20;65.90;;;;;;5040755;28;20045;-66
2022/05/04 01:13:43;;;;;;;19.13;11.75;;;13.20;65.90;;;;;;5045202;28;20025;-66
2022/05/04 01:16:09;;;;;;;17.92;12.15;;;13.10;66.00;;;;;;5032873;28;20095;-67
2022/05/04 01:18:35;;;;;;;16.52;11.70;;;13.10;66.10;;;;;;5033170;28;20524;-66
2022/05/04 01:21:03;;;;;;;17.02;11.57;;;13.10;66.30;;;;;;5041355;28;20036;-66
2022/05/04 01:23:29;;;;;;;18.63;12.60;;;13.10;66.50;;;;;;5039443;28;20097;-66
2022/05/04 01:25:56;;;;;;;20.73;12.80;;;13.10;66.40;;;;;;5044177;28;20167;-66
2022/05/04 01:28:22;;;;;;;21.33;14.02;;;13.00;66.60;;;;;;5038544;28;20044;-67
2022/05/04 01:30:47;;;;;;;20.50;13.98;;;13.00;66.90;;;;;;5031022;28;20033;-66
2022/05/04 01:33:13;;;;;;;20.92;13.13;;;13.00;67.20;;;;;;5032920;28;20495;-66
2022/05/04 01:35:39;;;;;;;19.38;13.07;;;12.90;66.30;;;;;;5036518;28;20104;-66
2022/05/04 01:38:04;;;;;;;18.98;13.13;;;12.90;67.10;;;;;;5035351;28;20045;-66
2022/05/04 01:40:30;;;;;;;16.98;12.38;;;12.90;67.00;;;;;;5041926;28;20108;-67
2022/05/04 01:42:56;;;;;;;18.30;12.52;;;12.90;66.90;;;;;;5044589;28;20069;-67
2022/05/04 01:45:22;;;;;;;18.27;12.80;;;12.80;66.90;;;;;;5033349;28;20568;-66
2022/05/04 01:47:49;;;;;;;22.10;14.27;;;12.80;67.10;;;;;;5035784;28;20040;-67
2022/05/04 01:50:16;;;;;;;19.55;13.48;;;12.80;67.20;;;;;;5042642;28;20044;-67
2022/05/04 01:52:42;;;;;;;20.33;13.63;;;12.80;67.40;;;;;;5038113;28;20029;-67
2022/05/04 01:55:09;;;;;;;18.63;12.95;;;12.80;67.50;;;;;;5041163;28;20032;-67
2022/05/04 01:57:35;;;;;;;20.42;14.57;;;12.80;67.40;;;;;;5043049;28;20040;-67
2022/05/04 02:00:01;;;;;;;22.42;13.80;;;12.80;67.50;;;;;;5035834;28;20385;-67
2022/05/04 02:02:27;;;;;;;23.17;14.75;;;12.70;67.60;;;;;;5039974;28;20036;-67
2022/05/04 02:04:53;;;;;;;21.75;13.75;;;12.70;67.50;;;;;;5035631;28;20029;-67
2022/05/04 02:07:19;;;;;;;21.98;13.80;;;12.70;67.50;;;;;;5030998;28;20064;-66
2022/05/04 02:09:46;;;;;;;20.10;13.30;;;12.70;67.60;;;;;;5046724;28;20060;-67
2022/05/04 02:12:12;;;;;;;22.58;13.75;;;12.70;67.70;;;;;;5040087;28;20068;-67
2022/05/04 02:14:38;;;;;;;21.02;14.13;;;12.70;68.00;;;;;;5039714;28;20026;-67
2022/05/04 02:17:05;;;;;;;21.38;14.18;;;12.70;68.10;;;;;;5032177;28;20179;-67
2022/05/04 02:19:31;;;;;;;23.90;14.75;;;12.70;68.40;;;;;;5027964;28;20101;-67
2022/05/04 02:21:56;;;;;;;21.10;14.30;;;12.70;68.70;;;;;;5041911;28;20071;-67
2022/05/04 02:24:22;;;;;;;20.13;14.13;;;12.70;68.60;;;;;;5037632;28;20036;-66
2022/05/04 02:26:48;;;;;;;23.77;16.02;;;12.70;68.60;;;;;;5037057;28;20025;-67
2022/05/04 02:29:14;;;;;;;23.75;15.77;;;12.70;68.90;;;;;;5032017;28;20119;-67
2022/05/04 02:31:39;;;;;;;24.75;16.95;;;12.70;69.20;;;;;;5036660;28;20076;-67
2022/05/04 02:34:05;;;;;;;25.65;16.45;;;12.70;69.30;;;;;;5035782;28;20033;-67
2022/05/04 02:39:15;;;;;;;23.90;15.98;;;12.70;69.50;;;;;;5033588;28;20416;-67
2022/05/04 02:41:40;;;;;;;24.20;16.65;;;12.80;69.60;;;;;;5034480;28;20029;-67
2022/05/04 02:44:07;;;;;;;24.23;15.45;;;12.80;69.60;;;;;;5043228;28;20476;-67
2022/05/04 02:46:32;;;;;;;29.05;17.15;;;12.80;69.70;;;;;;5043426;28;20087;-67
2022/05/04 02:48:59;;;;;;;24.88;16.58;;;12.80;69.60;;;;;;5044813;28;20104;-67
2022/05/04 02:51:24;;;;;;;26.52;16.95;;;12.80;69.70;;;;;;5042676;28;20032;-67
2022/05/04 02:53:51;;;;;;;27.58;17.15;;;12.80;69.80;;;;;;5036814;28;20747;-67
2022/05/04 02:56:17;;;;;;;25.98;17.60;;;12.80;70.00;;;;;;5040637;28;20506;-67
2022/05/04 02:58:43;;;;;;;24.80;16.98;;;12.80;70.10;;;;;;5028639;28;20033;-67
2022/05/04 03:04:06;;;;;;;27.00;17.80;;;12.80;70.40;;;;;;5044394;28;20032;-67
2022/05/04 03:06:33;;;;;;;29.42;18.08;;;12.80;70.40;;;;;;5031415;28;20551;-67
2022/05/04 03:08:59;;;;;;;29.10;17.95;;;12.80;70.50;;;;;;5036815;28;20049;-67
2022/05/04 03:14:09;;;;;;;30.42;18.20;;;12.80;70.50;;;;;;5032486;28;20201;-67
2022/05/04 03:16:35;;;;;;;29.83;18.38;;;12.80;70.50;;;;;;5034091;28;20144;-67
2022/05/04 03:19:04;;;;;;;31.33;17.73;;;12.80;70.50;;;;;;5034035;28;20025;-67
2022/05/04 03:21:30;;;;;;;33.85;17.80;;;12.80;70.50;;;;;;5040939;28;20040;-67
2022/05/04 03:23:56;;;;;;;30.63;17.83;;;12.90;70.50;;;;;;5037567;28;20018;-67
2022/05/04 03:26:24;;;;;;;28.50;17.80;;;12.80;70.40;;;;;;5040168;28;20037;-67
2022/05/04 03:28:52;;;;;;;26.60;17.85;;;12.80;70.40;;;;;;5032619;28;20517;-67
2022/05/04 03:31:19;;;;;;;28.65;18.98;;;12.80;70.50;;;;;;5045540;28;20032;-67
2022/05/04 03:33:44;;;;;;;30.67;18.00;;;12.80;70.50;;;;;;5045983;28;20029;-67
2022/05/04 03:36:10;;;;;;;31.63;19.25;;;12.80;70.40;;;;;;5034372;28;20079;-67
2022/05/04 03:38:36;;;;;;;26.35;17.20;;;12.80;71.30;;;;;;5042419;28;20459;-67
2022/05/04 03:41:03;;;;;;;26.20;17.98;;;12.80;70.40;;;;;;5039559;28;20476;-67
2022/05/04 03:43:28;;;;;;;29.88;19.13;;;12.70;70.50;;;;;;5046438;28;20480;-67
2022/05/04 03:45:54;;;;;;;28.48;18.27;;;12.70;70.60;;;;;;5050796;28;20036;-66
2022/05/04 03:48:21;;;;;;;31.88;18.58;;;12.70;70.70;;;;;;5045252;28;20048;-67
2022/05/04 03:50:47;;;;;;;28.00;18.38;;;12.70;70.70;;;;;;5040116;28;20125;-66
2022/05/04 03:53:14;;;;;;;29.48;17.98;;;12.70;70.90;;;;;;5041282;28;20108;-66
2022/05/04 03:55:40;;;;;;;30.02;18.73;;;12.70;70.90;;;;;;5030169;28;20123;-66
2022/05/04 03:58:06;;;;;;;27.88;18.25;;;12.60;70.80;;;;;;5048639;28;20064;-67
2022/05/04 04:00:31;;;;;;;27.58;18.15;;;12.70;70.90;;;;;;5043818;28;20068;-67
2022/05/04 04:02:57;;;;;;;29.65;18.08;;;12.60;70.70;;;;;;5037011;28;20134;-67
2022/05/04 04:05:23;;;;;;;28.30;18.38;;;12.60;70.70;;;;;;5036524;28;20021;-67
2022/05/04 04:07:49;;;;;;;30.63;19.05;;;12.60;70.60;;;;;;5046552;28;20029;-68
2022/05/04 04:10:15;;;;;;;27.08;18.02;;;12.50;70.40;;;;;;5045898;28;20079;-67
2022/05/04 04:12:41;;;;;;;27.40;18.23;;;12.50;70.40;;;;;;5040469;28;20116;-67
2022/05/04 04:15:07;;;;;;;29.50;18.25;;;12.50;70.30;;;;;;5036615;28;20160;-68
2022/05/04 04:17:32;;;;;;;31.85;18.83;;;12.50;70.30;;;;;;5033891;28;20072;-67
2022/05/04 04:22:42;;;;;;;27.63;18.15;;;12.50;70.50;;;;;;5032557;28;20400;-68
2022/05/04 04:25:08;;;;;;;29.02;19.52;;;12.50;70.60;;;;;;5044057;28;20112;-68
2022/05/04 04:27:35;;;;;;;29.92;18.70;;;12.40;70.50;;;;;;5034897;28;20036;-68
2022/05/04 04:30:01;;;;;;;29.98;19.60;;;12.40;70.60;;;;;;5033255;28;20037;-66
2022/05/04 04:32:27;;;;;;;30.17;19.75;;;12.40;70.70;;;;;;5035776;28;20067;-67
2022/05/04 04:34:52;;;;;;;27.60;18.80;;;12.40;70.90;;;;;;5044495;28;20037;-68
2022/05/04 04:37:18;;;;;;;30.40;18.83;;;12.40;70.90;;;;;;5049921;28;20077;-67
2022/05/04 04:39:44;;;;;;;29.75;19.73;;;12.40;71.00;;;;;;5035497;28;20497;-66
2022/05/04 04:42:12;;;;;;;29.83;19.50;;;12.30;71.00;;;;;;5033395;28;20124;-67
2022/05/04 04:44:38;;;;;;;30.98;19.02;;;12.30;71.00;;;;;;5044213;28;20431;-68
2022/05/04 04:47:04;;;;;;;35.65;20.48;;;12.30;71.00;;;;;;5044539;28;20488;-67
2022/05/04 04:49:30;;;;;;;31.45;19.88;;;12.30;71.90;;;;;;5031527;28;20029;-68
2022/05/04 04:51:56;;;;;;;32.33;19.75;;;12.30;71.10;;;;;;5047610;28;20028;-68
2022/05/04 04:54:21;;;;;;;30.45;19.10;;;12.30;71.20;;;;;;5032660;28;20390;-68
2022/05/04 04:56:47;;;;;;;29.10;19.10;;;12.20;71.20;;;;;;5038123;28;20573;-68
2022/05/04 04:59:13;;;;;;;29.73;18.23;;;12.20;71.20;;;;;;5046451;28;20103;-68
2022/05/04 05:01:39;;;;;;;26.55;17.15;;;12.20;71.00;;;;;;5046254;28;20075;-68
2022/05/04 05:04:04;;;;;;;29.77;17.58;;;12.20;70.70;;;;;;5033384;28;20029;-68
2022/05/04 05:06:30;;;;;;;45.80;18.52;;;12.30;69.70;;;;;;5031963;28;20429;-68
2022/05/04 05:08:56;;;;;;;45.17;18.00;;;12.20;70.40;;;;;;5041188;28;20044;-68
2022/05/04 05:11:22;;;;;;;43.78;17.40;;;12.20;70.20;;;;;;5043743;28;20024;-68
2022/05/04 05:16:32;;;;;;;35.85;18.35;;;12.20;69.70;;;;;;5029935;28;20028;-69
2022/05/04 05:18:57;;;;;;;34.20;17.13;;;12.20;69.60;;;;;;5038620;28;20033;-67
2022/05/04 05:21:23;;;;;;;32.72;17.75;;;12.10;69.60;;;;;;5041902;28;20040;-66
2022/05/04 05:23:49;;;;;;;30.90;17.73;;;12.20;69.50;;;;;;5038934;28;20095;-67
2022/05/04 05:26:14;;;;;;;30.13;18.38;;;12.20;69.30;;;;;;5038736;28;20035;-68
2022/05/04 05:28:40;;;;;;;33.38;19.92;;;12.20;69.20;;;;;;5040632;28;20036;-65
2022/05/04 05:31:05;;;;;;;33.38;19.33;;;12.30;69.40;;;;;;5037768;28;20033;-69
2022/05/04 05:33:31;;;;;;;29.58;19.02;;;12.30;69.60;;;;;;5045242;28;20035;-67
2022/05/04 05:35:57;;;;;;;31.30;19.38;;;12.30;69.90;;;;;;5043091;28;20216;-67
2022/05/04 05:38:26;;;;;;;32.38;20.25;;;12.40;70.00;;;;;;5046717;28;20133;-67
2022/05/04 05:40:52;;;;;;;30.02;19.65;;;12.50;70.10;;;;;;5043489;28;20025;-67
2022/05/04 05:43:17;;;;;;;32.10;19.05;;;12.60;70.10;;;;;;5032736;28;20035;-67
2022/05/04 05:45:43;;;;;;;31.65;19.60;;;12.70;70.10;;;;;;5033331;28;20034;-68
2022/05/04 05:48:09;;;;;;;31.70;19.85;;;12.80;69.90;;;;;;5035665;28;20056;-66
2022/05/04 05:50:34;;;;;;;32.70;19.58;;;12.90;69.70;;;;;;5037070;28;20645;-66
2022/05/04 05:53:02;;;;;;;33.08;19.42;;;13.00;69.50;;;;;;5045537;28;20452;-67
2022/05/04 05:55:29;;;;;;;31.02;20.00;;;13.20;69.30;;;;;;5043730;28;20043;-66
2022/05/04 05:57:54;;;;;;;30.35;19.92;;;13.30;69.20;;;;;;5049270;28;20609;-66
2022/05/04 06:00:20;;;;;;;33.83;20.58;;;13.40;69.00;;;;;;5046090;28;20033;-68
2022/05/04 06:02:46;;;;;;;34.60;20.63;;;13.60;68.90;;;;;;5036587;28;20040;-67
2022/05/04 06:05:12;;;;;;;34.33;20.10;;;13.70;68.50;;;;;;5031472;28;20041;-68
2022/05/04 06:07:38;;;;;;;30.77;20.30;;;13.90;68.20;;;;;;5038881;28;20516;-68
2022/05/04 06:10:05;;;;;;;30.98;19.90;;;14.10;67.90;;;;;;5028370;28;20033;-67
2022/05/04 06:12:31;;;;;;;30.00;19.00;;;14.30;67.80;;;;;;5044261;28;20043;-68
2022/05/04 06:14:57;;;;;;;33.45;20.23;;;14.50;67.70;;;;;;5046355;28;20029;-67
2022/05/04 06:17:23;;;;;;;31.48;20.27;;;14.70;67.40;;;;;;5040715;28;20045;-67
2022/05/04 06:19:48;;;;;;;32.15;19.52;;;15.00;66.70;;;;;;5033733;28;20454;-67
2022/05/04 06:22:14;;;;;;;32.03;20.30;;;15.50;64.80;;;;;;5033272;28;20067;-67
2022/05/04 06:24:40;;;;;;;31.48;19.27;;;16.10;62.30;;;;;;5033224;28;20076;-67
2022/05/04 06:27:06;;;;;;;29.52;19.08;;;16.70;59.80;;;;;;5032625;28;20034;-67
2022/05/04 06:35:05;;;;;;;32.90;19.50;;;18.70;52.40;;;;;;5035005;28;20033;-67
2022/05/04 06:37:31;;;;;;;34.97;20.02;;;19.10;50.90;;;;;;5048822;28;20352;-66
2022/05/04 06:39:57;;;;;;;30.80;19.98;;;19.50;49.70;;;;;;5034384;28;20109;-67
2022/05/04 06:42:23;;;;;;;29.58;20.08;;;19.90;48.50;;;;;;5034785;28;20552;-67
2022/05/04 06:44:48;;;;;;;30.50;19.50;;;20.30;47.50;;;;;;5037745;28;20128;-67
2022/05/04 06:47:14;;;;;;;31.40;20.20;;;20.60;47.50;;;;;;5049245;28;20811;-67
2022/05/04 06:49:40;;;;;;;28.73;19.05;;;21.00;45.60;;;;;;5044825;28;20400;-67
2022/05/04 06:52:06;;;;;;;28.90;19.35;;;21.30;44.80;;;;;;5047499;28;20119;-67
2022/05/04 06:54:32;;;;;;;27.02;18.33;;;21.60;43.90;;;;;;5054453;28;20483;-67
2022/05/04 06:56:57;;;;;;;28.65;18.45;;;21.90;42.90;;;;;;5054449;28;20064;-68
2022/05/04 06:59:23;;;;;;;28.02;19.42;;;22.20;42.40;;;;;;5044411;28;20540;-68
2022/05/04 07:01:49;;;;;;;26.95;18.05;;;22.60;41.50;;;;;;5045769;28;20699;-68
2022/05/04 07:04:16;;;;;;;31.58;18.60;;;22.70;41.00;;;;;;5046934;28;20086;-68
2022/05/04 07:06:42;;;;;;;25.63;18.48;;;22.50;41.50;;;;;;5047990;28;20028;-67
2022/05/04 07:09:07;;;;;;;21.30;15.48;;;22.40;41.90;;;;;;5054053;28;20037;-67
2022/05/04 07:11:33;;;;;;;24.23;14.82;;;22.20;42.30;;;;;;5044088;28;20535;-67
2022/05/04 07:13:58;;;;;;;20.42;13.93;;;22.00;43.00;;;;;;5034284;28;20122;-66
2022/05/04 07:16:24;;;;;;;20.13;14.07;;;21.80;44.90;;;;;;5042442;28;20030;-67
2022/05/04 07:18:50;;;;;;;20.58;14.13;;;21.60;45.00;;;;;;5036695;28;20041;-66
2022/05/04 07:21:15;;;;;;;21.27;14.00;;;21.40;45.70;;;;;;5048186;28;20159;-68
2022/05/04 07:23:41;;;;;;;18.50;13.23;;;21.20;46.10;;;;;;5056556;28;20092;-67
2022/05/04 07:26:07;;;;;;;19.15;12.90;;;21.40;45.70;;;;;;5055152;28;20025;-66
2022/05/04 07:28:33;;;;;;;28.63;13.80;;;21.40;45.20;;;;;;5041328;28;20412;-68
2022/05/04 07:30:58;;;;;;;19.80;13.00;;;21.40;45.40;;;;;;5048569;28;20036;-67
2022/05/04 07:33:24;;;;;;;23.63;14.85;;;21.40;45.40;;;;;;5039415;28;20802;-67
2022/05/04 07:35:50;;;;;;;23.08;15.35;;;21.50;45.20;;;;;;5041990;28;20378;-66
2022/05/04 07:38:16;;;;;;;22.27;15.40;;;21.70;45.20;;;;;;5041706;28;20046;-67
2022/05/04 07:43:26;;;;;;;24.52;16.52;;;21.90;44.90;;;;;;5057519;28;20518;-68
2022/05/04 07:45:51;;;;;;;23.48;16.83;;;22.10;44.80;;;;;;5041950;28;20032;-67
2022/05/04 07:48:17;;;;;;;30.15;20.13;;;22.30;44.40;;;;;;5036866;28;20034;-67
2022/05/04 07:50:43;;;;;;;31.48;21.02;;;22.40;43.40;;;;;;5041810;28;20108;-67
2022/05/04 07:53:08;;;;;;;28.90;20.83;;;22.60;42.80;;;;;;5043193;28;20033;-67
2022/05/04 07:55:36;;;;;;;29.55;20.23;;;22.60;42.40;;;;;;5044395;28;20032;-67
2022/05/04 07:58:02;;;;;;;30.38;20.83;;;22.70;42.60;;;;;;5047338;28;20037;-67
2022/05/04 08:05:56;;;;;;;30.23;21.30;;;23.00;41.70;;;;;;5043709;28;20140;-67
2022/05/04 08:08:22;;;;;;;33.67;22.67;;;23.10;41.60;;;;;;5047570;28;20516;-68
2022/05/04 08:10:48;;;;;;;30.67;21.33;;;23.30;41.30;;;;;;5046401;28;20033;-67
2022/05/04 08:13:14;;;;;;;31.38;21.35;;;23.50;41.00;;;;;;5039465;28;20377;-68
2022/05/04 08:15:40;;;;;;;32.60;22.27;;;23.80;40.30;;;;;;5047475;28;20144;-68
2022/05/04 08:18:07;;;;;;;27.70;20.48;;;24.30;40.20;;;;;;5036428;28;20037;-69
2022/05/04 08:20:32;;;;;;;32.00;19.95;;;25.00;37.60;;;;;;5035629;28;20029;-68
2022/05/04 08:22:59;;;;;;;27.77;19.77;;;25.80;35.90;;;;;;5043017;28;20060;-67
2022/05/04 08:25:25;;;;;;;29.33;21.25;;;26.00;35.40;;;;;;5042344;28;20132;-66
2022/05/04 08:27:51;;;;;;;25.13;19.45;;;26.20;34.60;;;;;;5037025;28;20026;-68
2022/05/04 08:30:17;;;;;;;25.45;19.08;;;26.40;34.20;;;;;;5039933;28;20528;-66
2022/05/04 08:32:47;;;;;;;25.65;18.73;;;26.50;33.70;;;;;;5040453;28;20037;-67
2022/05/04 08:35:13;;;;;;;26.58;19.58;;;27.10;32.60;;;;;;5034045;28;20033;-67
2022/05/04 08:37:39;;;;;;;24.70;19.13;;;27.60;31.90;;;;;;5045750;28;20045;-68
2022/05/04 08:40:06;;;;;;;29.10;19.27;;;27.80;31.50;;;;;;5035269;28;20056;-67
2022/05/04 08:42:31;;;;;;;25.70;19.45;;;27.90;31.00;;;;;;5039756;28;20029;-68
2022/05/04 08:44:58;;;;;;;27.83;20.05;;;27.70;30.70;;;;;;5052417;28;20090;-67
2022/05/04 08:47:29;;;;;;;25.50;19.58;;;27.60;30.50;;;;;;5052634;28;20331;-67
2022/05/04 08:49:54;;;;;;;24.33;19.70;;;27.40;30.60;;;;;;5034774;28;20033;-68
2022/05/04 08:52:21;;;;;;;26.50;18.00;;;27.30;30.90;;;;;;5036234;28;20169;-68
2022/05/04 08:54:49;;;;;;;25.48;20.00;;;27.30;31.20;;;;;;5032161;28;20033;-68
2022/05/04 08:57:15;;;;;;;23.98;19.67;;;27.30;30.90;;;;;;5039403;28;20056;-68
2022/05/04 08:59:43;;;;;;;27.60;20.83;;;27.40;30.50;;;;;;5039031;28;20049;-68
2022/05/04 09:02:10;;;;;;;26.15;20.85;;;26.70;31.00;;;;;;5043615;28;20044;-68
2022/05/04 09:04:39;;;;;;;25.98;19.23;;;26.40;31.50;;;;;;5029849;28;20025;-67
2022/05/04 09:07:23;;;;;;;28.33;19.35;;;26.30;31.90;;;;;;5041193;28;20097;-68
2022/05/04 09:09:50;;;;;;;34.40;18.30;;;26.10;32.10;;;;;;5040252;28;20021;-68
2022/05/04 09:12:16;;;;;;;25.13;18.05;;;26.10;32.60;;;;;;5043905;28;20541;-69
2022/05/04 09:14:43;;;;;;;24.40;17.45;;;26.00;32.60;;;;;;5041154;28;20033;-69
2022/05/04 09:17:10;;;;;;;31.75;19.50;;;26.00;32.90;;;;;;5040198;28;20040;-68
2022/05/04 09:19:35;;;;;;;28.83;17.55;;;26.30;32.80;;;;;;5028564;28;20065;-68
2022/05/04 09:22:01;;;;;;;24.52;16.92;;;26.70;32.60;;;;;;5032062;28;20064;-68
2022/05/04 09:24:29;;;;;;;25.70;18.75;;;27.00;32.00;;;;;;5033464;28;20515;-68
2022/05/04 09:26:57;;;;;;;23.80;18.80;;;27.30;30.10;;;;;;5030866;28;20036;-68
2022/05/04 09:29:36;;;;;;;26.92;18.85;;;27.20;30.60;;;;;;5032430;28;20095;-69
2022/05/04 09:32:15;;;;;;;22.40;16.70;;;27.10;30.00;;;;;;5033372;28;20026;-69
2022/05/04 09:34:41;;;;;;;23.92;18.15;;;27.10;30.50;;;;;;5029164;28;20029;-69
2022/05/04 09:45:39;;;;;;;24.20;17.42;;;28.00;29.60;;;;;;5038079;28;20116;-68
2022/05/04 09:48:05;;;;;;;23.23;18.10;;;28.10;30.00;;;;;;5043988;28;20028;-69
2022/05/04 09:50:40;;;;;;;23.42;17.73;;;28.00;29.70;;;;;;5040727;28;20104;-69
2022/05/04 09:53:07;;;;;;;24.70;17.73;;;28.10;29.60;;;;;;5033253;28;20094;-69
2022/05/04 09:55:34;;;;;;;22.35;17.35;;;27.90;30.00;;;;;;5028239;28;20029;-68
2022/05/04 09:58:00;;;;;;;22.15;16.88;;;28.40;29.10;;;;;;5055191;28;20094;-69
2022/05/04 10:00:27;;;;;;;20.05;15.98;;;29.00;28.70;;;;;;5040393;28;20119;-68
2022/05/04 10:02:54;;;;;;;19.98;16.50;;;29.00;28.10;;;;;;5041817;28;20318;-69
2022/05/04 10:05:20;;;;;;;23.15;16.90;;;29.20;28.00;;;;;;5034786;28;20061;-69
2022/05/04 10:07:49;;;;;;;20.73;16.40;;;29.70;27.30;;;;;;5045052;28;20051;-69
2022/05/04 10:10:18;;;;;;;20.08;16.52;;;30.20;27.40;;;;;;5047605;28;20031;-69
2022/05/04 10:12:44;;;;;;;20.73;14.45;;;30.70;27.40;;;;;;5052189;28;20051;-69
2022/05/04 10:15:18;;;;;;;19.00;14.27;;;31.20;27.80;;;;;;5039572;28;20078;-69
2022/05/04 10:18:03;;;;;;;25.05;13.77;;;31.70;26.50;;;;;;5038241;28;20038;-69
2022/05/04 10:20:35;;;;;;;20.33;15.23;;;32.20;25.80;;;;;;5032367;28;20056;-68
2022/05/04 10:23:06;;;;;;;22.60;15.15;;;32.50;24.90;;;;;;5030709;28;20176;-68
2022/05/04 10:25:34;;;;;;;18.17;14.88;;;32.60;24.80;;;;;;5034353;28;20740;-68
2022/05/04 10:28:08;;;;;;;19.52;14.38;;;32.90;24.50;;;;;;5044698;28;20442;-68
2022/05/04 10:30:35;;;;;;;21.20;15.02;;;32.00;25.20;;;;;;5043224;28;20062;-71
2022/05/04 10:33:05;;;;;;;20.60;15.88;;;30.90;26.00;;;;;;5057142;28;20119;-68
2022/05/04 10:35:47;;;;;;;19.02;14.50;;;30.80;25.90;;;;;;5052489;28;20064;-67
2022/05/04 10:38:29;;;;;;;19.23;13.98;;;30.80;25.70;;;;;;5045356;28;20607;-68
2022/05/04 10:40:54;;;;;;;71.05;15.40;;;29.90;26.20;;;;;;5035943;28;20094;-68
2022/05/04 10:43:34;;;;;;;24.83;13.68;;;30.00;26.30;;;;;;5058329;28;20487;-67
2022/05/04 10:46:11;;;;;;;15.95;12.40;;;30.60;25.40;;;;;;5056428;28;20033;-68
2022/05/04 10:49:05;;;;;;;17.55;14.23;;;31.00;25.60;;;;;;5037351;28;20606;-69
2022/05/04 10:51:38;;;;;;;17.80;13.48;;;31.50;24.90;;;;;;5053305;28;20126;-69
2022/05/04 10:54:18;;;;;;;21.70;15.88;;;31.90;24.50;;;;;;5057939;28;20459;-69
2022/05/04 10:56:49;;;;;;;19.33;15.07;;;31.60;24.80;;;;;;5050412;28;20049;-69
2022/05/04 10:59:24;;;;;;;19.27;14.98;;;30.40;26.10;;;;;;5036029;28;20189;-68
2022/05/04 11:01:54;;;;;;;19.15;14.15;;;29.50;27.20;;;;;;5047887;28;20104;-68
2022/05/04 11:04:26;;;;;;;21.02;15.13;;;28.80;28.00;;;;;;5054736;28;20083;-68
2022/05/04 11:07:06;;;;;;;21.98;14.55;;;28.10;28.70;;;;;;5056378;28;20060;-70
2022/05/04 11:09:39;;;;;;;17.88;13.38;;;27.60;29.10;;;;;;5036956;28;20427;-69
2022/05/04 11:12:06;;;;;;;17.30;13.63;;;29.00;27.10;;;;;;5046108;28;20040;-69
2022/05/04 11:14:34;;;;;;;17.23;12.98;;;29.90;26.50;;;;;;5043588;28;20022;-69
2022/05/04 11:17:01;;;;;;;18.35;12.70;;;31.10;25.20;;;;;;5035177;28;20511;-69
2022/05/04 11:19:32;;;;;;;18.83;13.15;;;31.60;25.00;;;;;;5030946;28;20078;-70
2022/05/04 11:21:59;;;;;;;14.10;11.93;;;32.40;23.60;;;;;;5036894;28;20029;-70
2022/05/04 11:24:26;;;;;;;14.18;10.75;;;33.60;22.80;;;;;;5044292;28;20056;-71
2022/05/04 11:26:53;;;;;;;14.30;10.45;;;34.40;22.10;;;;;;5040503;28;20034;-70
2022/05/04 11:29:22;;;;;;;15.15;10.27;;;34.60;21.40;;;;;;5034955;28;20415;-69
2022/05/04 11:31:58;;;;;;;12.25;9.60;;;32.90;22.40;;;;;;5032591;28;20038;-69
2022/05/04 11:34:26;;;;;;;15.23;9.93;;;31.50;23.70;;;;;;5034271;28;20120;-70
2022/05/04 11:36:53;;;;;;;12.32;9.32;;;33.10;21.90;;;;;;5036721;28;20044;-70
2022/05/04 11:39:22;;;;;;;18.92;8.93;;;34.60;20.90;;;;;;5037675;28;20393;-69
2022/05/04 11:41:54;;;;;;;12.77;9.05;;;36.10;19.90;;;;;;5033987;28;20512;-69
2022/05/04 11:44:21;;;;;;;10.23;7.43;;;35.70;19.90;;;;;;5035204;28;20045;-69
2022/05/04 11:46:51;;;;;;;12.13;8.77;;;34.90;20.60;;;;;;5037478;28;20129;-68
2022/05/04 11:49:19;;;;;;;15.43;9.90;;;33.30;22.20;;;;;;5032985;28;20033;-68
2022/05/04 11:51:45;;;;;;;14.45;10.75;;;32.20;23.20;;;;;;5053928;28;20060;-68
2022/05/04 11:54:12;;;;;;;13.55;10.13;;;31.00;24.80;;;;;;5036111;28;20034;-68
2022/05/04 11:56:38;;;;;;;12.77;9.63;;;30.00;25.80;;;;;;5033883;28;20555;-68
2022/05/04 11:59:05;;;;;;;16.83;9.40;;;29.10;26.30;;;;;;5033920;28;20116;-68
2022/05/04 12:01:31;;;;;;;12.88;9.30;;;28.50;26.80;;;;;;5041471;28;20048;-68
2022/05/04 12:03:57;;;;;;;15.65;9.48;;;28.00;27.50;;;;;;5035766;28;20061;-68
2022/05/04 12:06:23;;;;;;;10.43;8.90;;;28.30;26.90;;;;;;5033583;28;20488;-68
2022/05/04 12:08:49;;;;;;;12.25;8.77;;;29.40;25.20;;;;;;5048039;28;20108;-69
2022/05/04 12:11:16;;;;;;;11.95;7.75;;;31.90;22.80;;;;;;5044213;28;20062;-69
2022/05/04 12:13:43;;;;;;;11.02;8.50;;;33.70;21.70;;;;;;5034021;28;20021;-69
2022/05/04 12:16:12;;;;;;;11.07;7.93;;;35.20;19.90;;;;;;5031058;28;20048;-69
2022/05/04 12:18:39;;;;;;;10.18;7.40;;;35.90;19.00;;;;;;5050193;28;20811;-69
2022/05/04 12:21:11;;;;;;;11.65;7.93;;;36.50;19.00;;;;;;5036870;28;20631;-69
2022/05/04 12:23:41;;;;;;;11.57;9.35;;;34.70;20.70;;;;;;5031936;28;20025;-69
2022/05/04 12:26:08;;;;;;;14.02;9.85;;;32.80;22.40;;;;;;5040358;28;20020;-68
2022/05/04 12:28:35;;;;;;;12.02;8.25;;;31.90;23.20;;;;;;5049269;28;20120;-69
2022/05/04 12:33:50;;;;;;;8.70;6.82;;;35.50;20.50;;;;;;5035510;28;20043;-70
2022/05/04 12:36:23;;;;;;;11.35;6.53;;;37.10;18.60;;;;;;5033439;28;20504;-70
2022/05/04 12:38:50;;;;;;;10.43;6.70;;;38.30;18.10;;;;;;5038629;28;20034;-70
2022/05/04 12:41:18;;;;;;;9.27;5.80;;;39.10;17.70;;;;;;5038904;28;20025;-70
2022/05/04 12:43:45;;;;;;;7.85;5.45;;;39.40;16.90;;;;;;5045247;28;20079;-69
2022/05/04 12:46:13;;;;;;;7.60;6.35;;;40.20;16.60;;;;;;5032309;28;20025;-69
2022/05/04 12:48:41;;;;;;;7.57;4.97;;;40.80;15.80;;;;;;5034611;28;20096;-67
2022/05/04 12:51:08;;;;;;;7.00;4.70;;;41.40;15.60;;;;;;5031405;28;20029;-67
2022/05/04 12:53:35;;;;;;;7.10;4.35;;;41.90;15.00;;;;;;5034367;28;20083;-69
2022/05/04 12:58:45;;;;;;;6.22;4.15;;;38.70;16.30;;;;;;5030471;28;20519;-69
2022/05/04 13:01:12;;;;;;;6.13;4.00;;;38.70;16.30;;;;;;5032969;28;20428;-69
2022/05/04 13:03:38;;;;;;;7.90;4.40;;;38.50;16.80;;;;;;5049106;28;20491;-68
2022/05/04 13:06:04;;;;;;;6.40;4.30;;;37.90;17.50;;;;;;5036660;28;20018;-69
2022/05/04 13:08:29;;;;;;;6.85;4.18;;;38.90;16.90;;;;;;5041425;28;20510;-69